WHTO2: S Canadian Riv, Whitefield, OK

Data processed at Fri Jun 15 2018 23:47


All information presented herein is the property of the government of the United States of America and may be revised or deleted at any time without prior notice.
Dissemination of this information without the expressed written consent of the Public Affairs Office, Tulsa District U.S. Army Corps of Engineers is strictly prohibited.
These data are gathered electronically and, as presented, have not undergone any form of quality control. These data are not guaranteed to be valid or correct.
Go to home page.
Go to station list.

Upstream stations:

Downstream station:
Previous Day
Next Day
Current Day
    
SHEF ID:       WHTO2     Canadian River near Whitefield,
STATION TYPE:  

               PRECIP     STAGE  STAGE(2)  RIV-FLOW  BAT-LOAD
                   in        ft        ft       cfs      volt
              Ccp-Rev   Ccp-Rev   Ccp-Rev   Ccp-Rev   Ccp-Rev
(US/Central)
06/13 00:00      0.00      4.85      4.80      5384     12.58
06/13 01:00      0.00      4.34      4.28      4122     12.57
06/13 02:00      0.00      3.91      3.85      3199     12.55
06/13 03:00      0.00      3.55      3.47      2522     12.53
06/13 04:00      0.00      3.24      3.18      1980     12.53
06/13 05:00      0.00      3.00      2.93      1572     12.51
06/13 06:00      0.00      2.80      2.74      1259     12.50
06/13 07:00      0.01      2.64      2.59      1035     12.50
06/13 08:00      0.00      2.52      2.46       875     12.81
06/13 09:00      0.00      2.43      2.36       769     -1.00
06/13 10:00      0.00      2.31      2.28       643     13.32
06/13 11:00      0.00      2.24      2.18       577     12.93
06/13 12:00      0.00      2.18      2.11       523     13.16
06/13 13:00      0.00      2.13      2.08       478     13.13
06/13 14:00      0.00      2.08      2.06       435     13.13
06/13 15:00      0.00      2.04      2.01       403     12.97
06/13 16:00      0.00      2.02      1.99       388     12.96
06/13 17:00      0.00      2.86      2.86      1348     12.96
06/13 18:00      0.00      4.87      4.90      5437     12.94
06/13 19:00      0.00      5.92      5.95      8626     12.93
06/13 20:00      0.00      6.12      6.13      9309     12.93
06/13 21:00      0.00      5.79      5.80      8198     12.69
06/13 22:00      0.00      5.28      5.27      6616     12.63
06/13 23:00      0.00      4.75      4.74      5120     12.60